createdAt,value
2023-02-17T00:02:09.956Z,25.77
2023-02-17T00:04:43.515Z,24.70
2023-02-17T00:07:10.276Z,26.65
2023-02-17T00:09:43.464Z,23.52
2023-02-17T00:12:10.607Z,25.65
2023-02-17T00:14:49.948Z,23.23
2023-02-17T00:17:16.737Z,22.77
2023-02-17T00:19:52.382Z,21.70
2023-02-17T00:22:21.637Z,23.55
2023-02-17T00:25:25.467Z,22.33
2023-02-17T00:27:52.203Z,21.42
2023-02-17T00:30:26.807Z,20.15
2023-02-17T00:32:57.034Z,22.13
2023-02-17T00:35:32.583Z,21.15
2023-02-17T00:38:05.462Z,21.02
2023-02-17T00:40:32.331Z,20.63
2023-02-17T00:43:05.597Z,23.60
2023-02-17T00:45:35.321Z,22.17
2023-02-17T00:48:08.716Z,21.67
2023-02-17T00:50:38.772Z,22.08
2023-02-17T00:53:08.782Z,20.20
2023-02-17T00:55:42.438Z,20.63
2023-02-17T00:58:16.479Z,21.48
2023-02-17T01:00:53.415Z,23.35
2023-02-17T01:03:41.478Z,23.42
2023-02-17T01:06:36.912Z,21.60
2023-02-17T01:09:21.639Z,22.52
2023-02-17T01:11:48.495Z,23.90
2023-02-17T01:14:21.514Z,23.17
2023-02-17T01:16:49.654Z,22.35
2023-02-17T01:19:26.400Z,23.70
2023-02-17T01:21:53.098Z,25.13
2023-02-17T01:24:26.563Z,22.90
2023-02-17T01:26:53.524Z,24.33
2023-02-17T01:29:20.450Z,21.92
2023-02-17T01:31:53.535Z,24.35
2023-02-17T01:34:28.571Z,23.98
2023-02-17T01:37:01.529Z,24.10
2023-02-17T01:39:28.267Z,23.27
2023-02-17T01:42:01.492Z,23.40
2023-02-17T01:44:33.014Z,25.25
2023-02-17T01:47:06.546Z,23.73
2023-02-17T01:49:46.422Z,25.15
2023-02-17T01:52:23.098Z,21.95
2023-02-17T01:55:04.856Z,20.52
2023-02-17T01:57:46.503Z,23.05
2023-02-17T02:00:15.033Z,22.50
2023-02-17T02:03:18.176Z,22.50
2023-02-17T02:06:25.120Z,23.42
2023-02-17T02:09:28.517Z,21.85
2023-02-17T02:12:06.664Z,23.52
2023-02-17T02:14:39.652Z,20.75
2023-02-17T02:17:15.933Z,20.02
2023-02-17T02:20:12.478Z,20.00
2023-02-17T02:22:51.630Z,19.48
2023-02-17T02:25:48.554Z,18.67
2023-02-17T02:28:42.825Z,20.25
2023-02-17T02:31:43.710Z,19.08
2023-02-17T02:34:17.308Z,17.52
2023-02-17T02:36:57.529Z,18.08
2023-02-17T02:39:36.650Z,18.73
2023-02-17T02:42:08.305Z,18.98
2023-02-17T02:44:44.252Z,17.63
2023-02-17T02:47:50.536Z,18.88
2023-02-17T02:50:47.588Z,17.15
2023-02-17T02:53:27.532Z,19.38
2023-02-17T02:56:33.296Z,18.02
2023-02-17T02:59:36.580Z,18.92
2023-02-17T03:02:35.496Z,18.00
2023-02-17T03:05:50.575Z,17.25
2023-02-17T03:08:56.632Z,19.88
2023-02-17T03:11:38.565Z,20.65
2023-02-17T03:14:16.001Z,19.35
2023-02-17T03:16:49.661Z,19.65
2023-02-17T03:19:18.402Z,20.27
2023-02-17T03:21:58.642Z,22.20
2023-02-17T03:24:38.029Z,19.17
2023-02-17T03:27:14.681Z,21.55
2023-02-17T03:29:50.652Z,19.23
2023-02-17T03:32:50.361Z,17.25
2023-02-17T03:35:32.464Z,19.98
2023-02-17T03:38:07.995Z,18.58
2023-02-17T03:40:41.506Z,17.50
2023-02-17T03:43:08.518Z,19.45
2023-02-17T03:45:44.577Z,21.10
2023-02-17T03:48:11.601Z,20.98
2023-02-17T03:50:51.629Z,18.90
2023-02-17T03:53:21.404Z,23.85
2023-02-17T03:56:11.715Z,18.65
2023-02-17T03:58:45.560Z,18.30
2023-02-17T04:01:13.886Z,20.48
2023-02-17T04:03:47.633Z,20.63
2023-02-17T04:06:22.441Z,17.73
2023-02-17T04:08:55.781Z,16.80
2023-02-17T04:11:45.774Z,19.75
2023-02-17T04:14:19.464Z,19.80
2023-02-17T04:16:46.287Z,20.98
2023-02-17T04:19:21.203Z,21.75
2023-02-17T04:21:54.620Z,18.52
2023-02-17T04:24:24.840Z,20.13
2023-02-17T04:27:10.522Z,19.30
2023-02-17T04:29:37.535Z,19.25
2023-02-17T04:32:11.639Z,19.27
2023-02-17T04:34:50.087Z,17.38
2023-02-17T04:37:24.783Z,17.25
2023-02-17T04:39:57.598Z,18.10
2023-02-17T04:42:31.602Z,15.55
2023-02-17T04:45:07.566Z,19.90
2023-02-17T04:47:37.605Z,17.67
2023-02-17T04:50:12.640Z,17.90
2023-02-17T04:52:42.118Z,17.67
2023-02-17T04:55:15.768Z,16.73
2023-02-17T04:57:45.026Z,16.85
2023-02-17T05:00:12.280Z,16.15
2023-02-17T05:02:45.685Z,17.95
2023-02-17T05:05:31.729Z,13.95
2023-02-17T05:08:08.733Z,14.75
2023-02-17T05:10:41.522Z,15.63
2023-02-17T05:13:08.505Z,15.73
2023-02-17T05:15:44.646Z,13.55
2023-02-17T05:18:18.523Z,13.02
2023-02-17T05:20:51.652Z,14.40
2023-02-17T05:23:18.660Z,14.63
2023-02-17T05:25:57.858Z,15.43
2023-02-17T05:28:30.815Z,12.73
2023-02-17T05:31:14.695Z,12.73
2023-02-17T05:33:50.494Z,12.40
2023-02-17T05:39:10.560Z,12.10
2023-02-17T05:41:46.870Z,14.40
2023-02-17T05:44:19.618Z,14.82
2023-02-17T05:46:48.919Z,13.57
2023-02-17T05:49:24.943Z,12.30
2023-02-17T05:51:51.836Z,15.20
2023-02-17T05:54:32.586Z,15.50
2023-02-17T05:56:59.556Z,14.90
2023-02-17T05:59:33.592Z,16.00
2023-02-17T06:02:06.125Z,15.52
2023-02-17T06:04:39.685Z,16.02
2023-02-17T06:07:12.717Z,17.58
2023-02-17T06:09:47.235Z,19.40
2023-02-17T06:12:14.022Z,19.92
2023-02-17T06:14:45.726Z,18.90
2023-02-17T06:17:18.604Z,19.40
2023-02-17T06:19:51.689Z,22.67
2023-02-17T06:22:24.675Z,21.38
2023-02-17T06:24:53.562Z,22.85
2023-02-17T06:27:26.672Z,21.45
2023-02-17T06:29:53.407Z,19.02
2023-02-17T06:32:26.601Z,18.70
2023-02-17T06:34:53.389Z,21.05
2023-02-17T06:37:26.719Z,23.65
2023-02-17T06:39:53.555Z,20.90
2023-02-17T06:42:26.649Z,18.85
2023-02-17T06:44:56.006Z,23.02
2023-02-17T06:47:29.670Z,24.08
2023-02-17T06:50:06.422Z,24.02
2023-02-17T06:52:33.165Z,20.10
2023-02-17T06:55:06.794Z,21.35
2023-02-17T06:57:33.626Z,20.65
2023-02-17T07:00:00.782Z,21.50
2023-02-17T07:05:40.633Z,22.27
2023-02-17T07:08:07.586Z,16.00
2023-02-17T07:10:41.584Z,25.25
2023-02-17T07:13:08.863Z,26.52
2023-02-17T07:15:42.653Z,24.10
2023-02-17T07:18:09.484Z,22.42
2023-02-17T07:20:43.719Z,23.92
2023-02-17T07:23:10.693Z,25.35
2023-02-17T07:26:11.756Z,24.20
2023-02-17T07:28:40.016Z,25.75
2023-02-17T07:31:40.532Z,20.13
2023-02-17T07:34:14.662Z,22.80
2023-02-17T07:36:55.068Z,21.38
2023-02-17T07:39:31.676Z,21.70
2023-02-17T07:42:01.213Z,24.23
2023-02-17T07:44:34.860Z,25.20
2023-02-17T07:47:01.516Z,17.65
2023-02-17T07:49:55.663Z,25.58
2023-02-17T07:52:37.092Z,21.05
2023-02-17T07:55:13.428Z,23.85
2023-02-17T07:57:40.355Z,20.10
2023-02-17T08:00:14.813Z,20.92
2023-02-17T08:02:41.524Z,24.10
2023-02-17T08:05:21.064Z,20.27
2023-02-17T08:08:14.117Z,21.75
2023-02-17T08:11:11.511Z,22.90
2023-02-17T08:13:38.517Z,20.33
2023-02-17T08:17:09.322Z,21.70
2023-02-17T08:19:47.434Z,21.13
2023-02-17T08:22:31.875Z,21.10
2023-02-17T08:25:01.136Z,17.98
2023-02-17T08:27:34.725Z,19.67
2023-02-17T08:30:01.626Z,18.52
2023-02-17T08:32:37.657Z,15.77
2023-02-17T08:35:14.237Z,15.93
2023-02-17T08:37:47.647Z,18.95
2023-02-17T08:40:27.084Z,18.67
2023-02-17T08:43:02.990Z,20.30
2023-02-17T08:45:36.147Z,17.77
2023-02-17T08:48:12.185Z,17.35
2023-02-17T08:50:39.021Z,16.42
2023-02-17T08:53:12.775Z,17.73
2023-02-17T08:55:49.265Z,15.60
2023-02-17T08:58:25.350Z,17.63
2023-02-17T09:00:52.332Z,17.85
2023-02-17T09:08:46.076Z,15.80
2023-02-17T09:11:55.872Z,15.20
2023-02-17T09:14:24.371Z,17.13
2023-02-17T09:17:03.836Z,14.50
2023-02-17T09:19:30.588Z,15.13
2023-02-17T09:22:03.715Z,14.00
2023-02-17T09:24:49.801Z,15.80
2023-02-17T09:27:24.759Z,14.32
2023-02-17T09:29:51.518Z,14.25
2023-02-17T09:32:36.142Z,12.88
2023-02-17T09:35:12.447Z,14.05
2023-02-17T09:37:48.591Z,12.43
2023-02-17T09:40:35.389Z,13.25
2023-02-17T09:43:10.004Z,11.85
2023-02-17T09:45:37.069Z,11.13
2023-02-17T09:48:38.555Z,9.63
2023-02-17T09:51:19.565Z,12.35
2023-02-17T09:54:11.014Z,11.90
2023-02-17T09:57:15.634Z,11.35
2023-02-17T09:59:53.773Z,9.95
2023-02-17T10:06:09.060Z,11.75
2023-02-17T10:09:12.945Z,9.80
2023-02-17T10:11:49.728Z,10.00
2023-02-17T10:14:48.775Z,10.18
2023-02-17T10:17:35.117Z,9.45
2023-02-17T10:20:38.140Z,9.45
2023-02-17T10:23:10.888Z,10.05
2023-02-17T10:25:58.785Z,8.40
2023-02-17T10:28:34.899Z,7.07
2023-02-17T10:31:38.842Z,7.85
2023-02-17T10:34:24.802Z,8.68
2023-02-17T10:37:31.808Z,6.15
2023-02-17T10:39:58.804Z,7.72
2023-02-17T10:42:35.782Z,6.63
2023-02-17T10:45:38.806Z,7.72
2023-02-17T10:48:28.775Z,5.10
2023-02-17T10:51:17.625Z,6.82
2023-02-17T10:53:55.696Z,6.60
2023-02-17T10:56:46.968Z,7.13
2023-02-17T10:59:32.850Z,7.50
2023-02-17T11:03:12.519Z,5.90
2023-02-17T11:05:49.790Z,7.35
2023-02-17T11:08:49.771Z,7.07
2023-02-17T11:11:31.083Z,6.53
2023-02-17T11:14:13.778Z,5.97
2023-02-17T11:16:58.748Z,5.97
2023-02-17T11:19:30.111Z,6.85
2023-02-17T11:22:06.873Z,5.30
2023-02-17T11:24:41.738Z,7.13
2023-02-17T11:27:18.785Z,6.40
2023-02-17T11:29:45.447Z,6.45
2023-02-17T11:32:19.772Z,6.43
2023-02-17T11:34:57.726Z,5.63
2023-02-17T11:37:35.781Z,7.38
2023-02-17T11:40:26.258Z,6.45
2023-02-17T11:43:06.232Z,7.70
2023-02-17T11:46:01.100Z,5.78
2023-02-17T11:49:12.852Z,5.78
2023-02-17T11:52:15.754Z,7.28
2023-02-17T11:54:51.558Z,6.22
2023-02-17T11:57:51.749Z,6.03
2023-02-17T12:00:36.972Z,7.13
2023-02-17T12:04:07.853Z,5.82
2023-02-17T12:07:24.206Z,7.00
2023-02-17T12:10:03.789Z,7.78
2023-02-17T12:12:50.401Z,7.30
2023-02-17T12:15:38.855Z,9.27
2023-02-17T12:18:21.186Z,6.55
2023-02-17T12:21:31.858Z,6.35
2023-02-17T12:24:11.829Z,8.45
2023-02-17T12:27:10.762Z,7.97
2023-02-17T12:30:01.251Z,7.72
2023-02-17T12:32:54.891Z,6.95
2023-02-17T12:35:43.827Z,6.80
2023-02-17T12:38:27.092Z,9.57
2023-02-17T12:41:54.769Z,8.30
2023-02-17T12:44:27.971Z,7.90
2023-02-17T12:47:06.838Z,10.80
2023-02-17T12:50:07.341Z,8.75
2023-02-17T12:52:49.173Z,10.10
2023-02-17T12:55:25.522Z,8.75
2023-02-17T12:58:18.910Z,10.45
2023-02-17T13:01:20.925Z,10.03
2023-02-17T13:03:55.062Z,13.43
2023-02-17T13:06:48.688Z,11.32
2023-02-17T13:09:31.945Z,12.95
2023-02-17T13:12:30.193Z,9.77
2023-02-17T13:15:08.885Z,9.80
2023-02-17T13:17:59.142Z,10.57
2023-02-17T13:20:38.843Z,10.10
2023-02-17T13:23:18.967Z,11.68
2023-02-17T13:25:52.859Z,9.93
2023-02-17T13:28:40.154Z,9.20
2023-02-17T13:31:24.195Z,8.73
2023-02-17T13:34:05.902Z,9.95
2023-02-17T13:36:38.868Z,10.93
2023-02-17T13:39:35.384Z,10.55
2023-02-17T13:42:55.121Z,8.80
2023-02-17T13:46:05.211Z,8.20
2023-02-17T13:48:34.519Z,9.40
2023-02-17T13:51:11.102Z,8.68
2023-02-17T13:53:41.232Z,10.18
2023-02-17T13:56:30.871Z,10.93
2023-02-17T13:59:18.650Z,7.95
2023-02-17T14:02:00.884Z,5.45
2023-02-17T14:04:32.000Z,7.00
2023-02-17T14:07:10.987Z,10.63
2023-02-17T14:09:41.830Z,6.43
2023-02-17T14:12:27.956Z,5.43
2023-02-17T14:14:55.115Z,7.25
2023-02-17T14:17:39.990Z,9.75
2023-02-17T14:20:14.024Z,7.70
2023-02-17T14:22:59.179Z,7.25
2023-02-17T14:25:41.933Z,7.05
2023-02-17T14:28:20.590Z,8.18
2023-02-17T14:30:54.931Z,5.68
2023-02-17T14:33:30.992Z,7.63
2023-02-17T14:36:08.279Z,6.00
2023-02-17T14:38:49.000Z,9.90
2023-02-17T14:41:16.029Z,7.85
2023-02-17T14:46:36.972Z,9.18
2023-02-17T14:49:04.288Z,7.32
2023-02-17T14:51:42.951Z,8.95
2023-02-17T14:54:18.524Z,8.45
2023-02-17T14:56:58.929Z,8.48
2023-02-17T14:59:32.893Z,11.27
2023-02-17T15:02:14.030Z,9.85
2023-02-17T15:04:48.070Z,6.78
2023-02-17T15:07:18.351Z,9.15
2023-02-17T15:09:55.968Z,7.88
2023-02-17T15:12:26.144Z,9.95
2023-02-17T15:15:05.005Z,8.18
2023-02-17T15:17:35.218Z,9.30
2023-02-17T15:20:09.946Z,10.13
2023-02-17T15:22:44.524Z,8.27
2023-02-17T15:25:31.089Z,8.27
2023-02-17T15:28:06.976Z,11.00
2023-02-17T15:30:36.284Z,9.50
2023-02-17T15:33:10.032Z,8.88
2023-02-17T15:35:37.212Z,8.90
2023-02-17T15:38:14.759Z,9.48
2023-02-17T15:40:49.012Z,8.32
2023-02-17T15:43:28.922Z,7.95
2023-02-17T15:45:58.625Z,7.18
2023-02-17T15:48:39.867Z,6.97
2023-02-17T15:51:12.894Z,8.73
2023-02-17T15:53:39.908Z,9.25
2023-02-17T15:56:41.043Z,9.10
2023-02-17T15:59:18.995Z,11.27
2023-02-17T16:01:52.956Z,10.35
2023-02-17T16:04:26.619Z,11.50
2023-02-17T16:07:00.011Z,11.25
2023-02-17T16:09:34.225Z,9.38
2023-02-17T16:12:01.830Z,8.05
2023-02-17T16:14:47.045Z,8.25
2023-02-17T16:17:16.391Z,8.38
2023-02-17T16:19:50.974Z,10.20
2023-02-17T16:22:18.055Z,9.13
2023-02-17T16:24:51.945Z,10.00
2023-02-17T16:27:19.250Z,8.48
2023-02-17T16:29:52.993Z,8.07
2023-02-17T16:32:27.096Z,7.50
2023-02-17T16:35:00.981Z,7.72
2023-02-17T16:37:28.181Z,7.63
2023-02-17T16:40:02.171Z,8.75
2023-02-17T16:42:29.134Z,8.93
2023-02-17T16:47:40.957Z,9.32
2023-02-17T16:50:09.649Z,8.13
2023-02-17T16:52:45.422Z,7.00
2023-02-17T16:55:25.938Z,8.82
2023-02-17T16:58:02.601Z,11.75
2023-02-17T17:00:40.029Z,7.47
2023-02-17T17:03:32.036Z,10.05
2023-02-17T17:06:06.594Z,10.18
2023-02-17T17:08:33.898Z,11.15
2023-02-17T17:11:07.951Z,9.32
2023-02-17T17:13:35.226Z,10.75
2023-02-17T17:16:09.990Z,9.27
2023-02-17T17:18:37.143Z,11.50
2023-02-17T17:21:11.047Z,15.07
2023-02-17T17:23:45.955Z,9.85
2023-02-17T17:26:27.611Z,10.95
2023-02-17T17:29:04.761Z,8.40
2023-02-17T17:31:38.580Z,9.60
2023-02-17T17:34:12.945Z,7.47
2023-02-17T17:36:44.051Z,9.18
2023-02-17T17:39:27.039Z,9.13
2023-02-17T17:41:54.092Z,8.43
2023-02-17T17:44:28.083Z,9.75
2023-02-17T17:46:55.243Z,9.57
2023-02-17T17:49:25.144Z,6.78
2023-02-17T17:51:59.251Z,8.73
2023-02-17T17:54:33.012Z,10.40
2023-02-17T17:57:06.984Z,7.95
2023-02-17T17:59:34.233Z,10.05
2023-02-17T18:02:07.897Z,10.82
2023-02-17T18:04:37.526Z,11.65
2023-02-17T18:07:11.077Z,10.18
2023-02-17T18:09:39.391Z,7.85
2023-02-17T18:12:20.124Z,12.98
2023-02-17T18:14:52.285Z,8.38
2023-02-17T18:17:27.042Z,11.85
2023-02-17T18:19:55.391Z,8.23
2023-02-17T18:25:06.004Z,9.07
2023-02-17T18:27:51.064Z,13.35
2023-02-17T18:30:20.687Z,10.43
2023-02-17T18:32:48.049Z,9.27
2023-02-17T18:35:22.177Z,12.27
2023-02-17T18:37:49.541Z,9.32
2023-02-17T18:40:25.014Z,10.23
2023-02-17T18:42:52.274Z,9.80
2023-02-17T18:45:27.067Z,10.30
2023-02-17T18:47:54.312Z,11.70
2023-02-17T18:50:21.551Z,8.18
2023-02-17T18:52:55.047Z,8.15
2023-02-17T18:55:29.066Z,10.93
2023-02-17T18:57:59.430Z,7.80
2023-02-17T19:00:33.132Z,10.23
2023-02-17T19:03:07.028Z,8.32
2023-02-17T19:08:41.003Z,5.75
2023-02-17T19:11:15.058Z,6.88
2023-02-17T19:13:49.003Z,7.25
2023-02-17T19:16:21.287Z,10.95
2023-02-17T19:18:55.056Z,10.77
2023-02-17T19:21:23.302Z,10.27
2023-02-17T19:23:50.804Z,10.18
2023-02-17T19:26:25.061Z,9.18
2023-02-17T19:28:59.079Z,8.88
2023-02-17T19:31:26.472Z,10.55
2023-02-17T19:34:00.128Z,9.15
2023-02-17T19:36:27.294Z,11.32
2023-02-17T19:39:03.074Z,7.38
2023-02-17T19:41:37.254Z,7.97
2023-02-17T19:44:12.028Z,6.80
2023-02-17T19:46:46.311Z,11.70
2023-02-17T19:49:13.713Z,8.93
2023-02-17T19:51:48.107Z,7.45
2023-02-17T19:54:15.482Z,8.57
2023-02-17T19:56:49.196Z,10.07
2023-02-17T19:59:16.906Z,9.32
2023-02-17T20:01:51.379Z,10.38
2023-02-17T20:04:27.476Z,11.43
2023-02-17T20:07:01.098Z,12.55
2023-02-17T20:09:35.131Z,7.93
2023-02-17T20:12:02.091Z,13.15
2023-02-17T20:14:40.049Z,10.65
2023-02-17T20:17:07.286Z,8.23
2023-02-17T20:19:45.036Z,9.95
2023-02-17T20:22:12.353Z,11.02
2023-02-17T20:24:47.005Z,10.23
2023-02-17T20:27:16.481Z,9.93
2023-02-17T20:29:52.348Z,7.93
2023-02-17T20:32:20.108Z,10.07
2023-02-17T20:34:54.499Z,10.07
2023-02-17T20:37:21.424Z,16.45
2023-02-17T20:39:56.167Z,9.18
2023-02-17T20:42:23.365Z,10.43
2023-02-17T20:44:58.037Z,10.05
2023-02-17T20:47:33.701Z,15.45
2023-02-17T20:50:00.909Z,16.05
2023-02-17T20:52:34.106Z,14.65
2023-02-17T20:55:01.282Z,18.95
2023-02-17T20:57:35.046Z,15.00
2023-02-17T21:00:05.566Z,15.88
2023-02-17T21:02:39.051Z,21.08
2023-02-17T21:05:12.925Z,17.73
2023-02-17T21:07:47.088Z,17.27
2023-02-17T21:10:20.465Z,22.90
2023-02-17T21:12:54.109Z,22.27
2023-02-17T21:15:28.036Z,19.40
2023-02-17T21:18:02.134Z,18.20
2023-02-17T21:20:29.323Z,17.50
2023-02-17T21:22:56.482Z,17.98
2023-02-17T21:25:30.085Z,15.43
2023-02-17T21:27:57.437Z,16.25
2023-02-17T21:30:33.170Z,16.10
2023-02-17T21:33:10.200Z,16.10
2023-02-17T21:35:44.223Z,20.48
2023-02-17T21:38:12.492Z,15.02
2023-02-17T21:40:48.285Z,17.73
2023-02-17T21:43:34.310Z,16.80
2023-02-17T21:46:08.620Z,15.50
2023-02-17T21:48:38.829Z,15.02
2023-02-17T21:51:15.268Z,17.23
2023-02-17T21:53:48.177Z,16.90
2023-02-17T21:56:22.116Z,20.13
2023-02-17T21:58:51.077Z,18.20
2023-02-17T22:01:28.158Z,12.85
2023-02-17T22:04:02.908Z,18.45
2023-02-17T22:06:39.150Z,15.82
2023-02-17T22:09:15.186Z,12.85
2023-02-17T22:11:50.162Z,15.20
2023-02-17T22:14:30.165Z,11.88
2023-02-17T22:16:57.756Z,12.18
2023-02-17T22:19:32.173Z,13.13
2023-02-17T22:22:06.182Z,13.10
2023-02-17T22:24:40.144Z,14.25
2023-02-17T22:27:07.412Z,14.73
2023-02-17T22:29:41.220Z,13.43
2023-02-17T22:32:08.501Z,17.55
2023-02-17T22:34:42.212Z,14.90
2023-02-17T22:37:09.237Z,14.82
2023-02-17T22:39:43.205Z,15.68
2023-02-17T22:42:10.231Z,12.60
2023-02-17T22:44:46.675Z,17.98
2023-02-17T22:47:14.728Z,13.95
2023-02-17T22:49:49.264Z,15.32
2023-02-17T22:52:16.564Z,13.77
2023-02-17T22:54:44.491Z,11.63
2023-02-17T22:57:18.756Z,14.45
2023-02-17T22:59:46.121Z,13.30
2023-02-17T23:02:20.292Z,13.95
2023-02-17T23:04:54.035Z,14.07
2023-02-17T23:07:27.236Z,13.52
2023-02-17T23:09:54.711Z,15.65
2023-02-17T23:12:21.892Z,17.90
2023-02-17T23:14:58.435Z,12.68
2023-02-17T23:17:25.576Z,17.45
2023-02-17T23:19:59.229Z,17.90
2023-02-17T23:22:36.401Z,18.25
2023-02-17T23:25:03.488Z,20.02
2023-02-17T23:27:40.173Z,15.65
2023-02-17T23:30:16.210Z,22.90
2023-02-17T23:32:43.403Z,19.20
2023-02-17T23:35:18.128Z,20.75
2023-02-17T23:37:45.467Z,22.83
2023-02-17T23:40:13.286Z,23.73
2023-02-17T23:42:47.213Z,23.20
2023-02-17T23:45:14.686Z,26.42
2023-02-17T23:47:51.572Z,30.30
2023-02-17T23:50:18.893Z,27.48
2023-02-17T23:52:55.848Z,25.77
2023-02-17T23:55:23.050Z,29.95
2023-02-17T23:57:57.177Z,29.15
